Time;durP1;ratioP1;P1;durP2;ratioP2;P2;SDS_P1;SDS_P2;PMS_P1;PMS_P2;Temp;Humidity;BMP_temperature;BMP_pressure;BME280_temperature;BME280_humidity;BME280_pressure;Samples;Min_cycle;Max_cycle;Signal;HPM_P1;HPM_P2
2021/09/05 00:00:23;;;;;;;;;0.00;0.00;;;;;27.04;49.89;100842.69;5034831;28;45384;-68
2021/09/05 00:02:49;;;;;;;;;0.00;0.00;;;;;27.06;49.55;100853.53;5034544;28;44931;-68
2021/09/05 00:05:14;;;;;;;;;0.00;0.00;;;;;27.05;49.73;100851.78;5034894;28;45743;-68
2021/09/05 00:07:39;;;;;;;;;1.25;0.75;;;;;27.00;49.44;100846.53;5032727;28;46873;-68
2021/09/05 00:10:06;;;;;;;;;0.00;0.00;;;;;27.05;50.04;100854.50;5034180;28;45404;-68
2021/09/05 00:12:31;;;;;;;;;0.00;0.00;;;;;27.07;49.92;100860.75;5034725;28;45532;-68
2021/09/05 00:14:57;;;;;;;;;0.33;0.33;;;;;27.06;50.01;100858.97;5034781;28;45469;-68
2021/09/05 00:17:22;;;;;;;;;0.00;0.00;;;;;27.06;49.50;100858.97;5034564;28;45655;-68
2021/09/05 00:19:49;;;;;;;;;0.00;0.00;;;;;27.04;49.71;100852.72;5034384;28;45373;-68
2021/09/05 00:22:14;;;;;;;;;0.00;0.00;;;;;27.03;49.59;100849.13;5034594;28;45480;-68
2021/09/05 00:24:40;;;;;;;;;0.00;0.00;;;;;27.05;49.98;100855.38;5034596;28;45389;-68
2021/09/05 00:27:05;;;;;;;;;0.00;0.00;;;;;27.04;50.12;100858.19;5034290;28;45772;-68
2021/09/05 00:29:30;;;;;;;;;0.67;0.67;;;;;27.04;50.09;100850.88;5034358;28;45835;-68
2021/09/05 00:31:56;;;;;;;;;0.00;0.00;;;;;27.04;50.15;100860.91;5032835;28;45971;-68
2021/09/05 00:34:21;;;;;;;;;0.33;0.33;;;;;27.05;49.60;100854.50;5034547;28;45517;-67
2021/09/05 00:36:47;;;;;;;;;0.00;0.00;;;;;27.04;50.03;100850.00;5033966;28;45507;-68
2021/09/05 00:39:12;;;;;;;;;0.33;0.33;;;;;27.03;49.67;100848.25;5033028;28;45417;-68
2021/09/05 00:41:37;;;;;;;;;0.00;0.00;;;;;27.03;50.01;100837.31;5034356;28;45431;-68
2021/09/05 00:44:05;;;;;;;;;0.67;0.67;;;;;27.01;50.18;100836.53;5034047;28;45397;-68
2021/09/05 00:46:32;;;;;;;;;0.67;0.67;;;;;27.03;50.03;100834.59;5034071;28;46312;-68
2021/09/05 00:48:58;;;;;;;;;0.00;0.00;;;;;27.02;49.66;100824.63;5033974;28;45490;-68
2021/09/05 00:51:31;;;;;;;;;0.00;0.00;;;;;27.03;49.38;100837.31;5034083;28;45522;-68
2021/09/05 00:53:58;;;;;;;;;0.00;0.00;;;;;27.02;49.90;100830.97;5034100;28;45455;-68
2021/09/05 00:56:28;;;;;;;;;0.00;0.00;;;;;27.01;49.95;100828.34;5033900;28;45778;-68
2021/09/05 00:58:55;;;;;;;;;0.00;0.00;;;;;27.02;50.16;100835.53;5033692;28;45425;-68
2021/09/05 01:01:22;;;;;;;;;0.67;0.67;;;;;27.02;49.71;100833.69;5034759;28;45471;-67
2021/09/05 01:03:49;;;;;;;;;0.00;0.00;;;;;27.02;49.84;100827.34;5033891;28;45447;-68
2021/09/05 01:06:14;;;;;;;;;0.00;0.00;;;;;27.02;49.43;100836.41;5033998;28;45890;-68
2021/09/05 01:08:41;;;;;;;;;0.67;0.67;;;;;27.03;49.51;100846.38;5033016;28;45502;-66
2021/09/05 01:11:06;;;;;;;;;0.00;0.00;;;;;27.02;49.47;100847.34;5033228;28;45506;-67
2021/09/05 01:13:32;;;;;;;;;0.00;0.00;;;;;27.03;49.66;100853.72;5034618;28;45500;-68
2021/09/05 01:15:58;;;;;;;;;0.00;0.00;;;;;27.02;49.74;100857.38;5037257;28;45338;-68
2021/09/05 01:18:24;;;;;;;;;0.67;0.67;;;;;27.02;49.98;100854.66;5037463;28;45401;-68
2021/09/05 01:20:49;;;;;;;;;0.00;0.00;;;;;27.01;49.37;100859.25;5036228;28;45757;-68
2021/09/05 01:23:15;;;;;;;;;0.00;0.00;;;;;27.02;49.37;100865.56;5037563;28;44848;-68
2021/09/05 01:25:40;;;;;;;;;0.00;0.00;;;;;27.01;49.61;100866.56;5037210;28;46140;-68
2021/09/05 01:28:10;;;;;;;;;0.00;0.00;;;;;27.01;49.31;100866.56;5037134;28;45697;-68
2021/09/05 01:30:36;;;;;;;;;0.00;0.00;;;;;27.00;49.33;100872.97;5037199;28;45443;-68
2021/09/05 01:33:01;;;;;;;;;0.00;0.00;;;;;26.99;49.51;100868.47;5037343;28;45767;-68
2021/09/05 01:35:26;;;;;;;;;0.67;0.67;;;;;26.99;49.43;100863.03;5037017;28;45804;-68
2021/09/05 01:37:52;;;;;;;;;0.00;0.00;;;;;26.98;49.91;100864.84;5037007;28;45364;-68
2021/09/05 01:40:18;;;;;;;;;0.00;0.00;;;;;26.98;50.00;100856.66;5037031;28;45367;-68
2021/09/05 01:42:50;;;;;;;;;0.00;0.00;;;;;26.98;49.78;100844.84;5037333;28;45517;-68
2021/09/05 01:45:15;;;;;;;;;0.00;0.00;;;;;26.98;49.67;100855.78;5033398;28;45520;-68
2021/09/05 01:47:40;;;;;;;;;0.00;0.00;;;;;26.98;49.92;100848.47;5036854;28;45799;-68
2021/09/05 01:50:06;;;;;;;;;0.00;0.00;;;;;26.98;49.38;100856.66;5036960;28;45532;-68
2021/09/05 01:52:32;;;;;;;;;0.00;0.00;;;;;26.98;49.65;100851.19;5036789;28;45444;-68
2021/09/05 01:54:57;;;;;;;;;0.00;0.00;;;;;26.99;49.26;100871.22;5036761;28;45399;-68
2021/09/05 01:57:22;;;;;;;;;0.00;0.00;;;;;26.97;49.36;100860.38;5036635;28;45454;-68
2021/09/05 01:59:48;;;;;;;;;0.00;0.00;;;;;26.97;49.31;100864.94;5037002;28;45464;-68
2021/09/05 02:02:13;;;;;;;;;0.33;0.00;;;;;26.98;49.46;100869.44;5037234;28;45455;-68
2021/09/05 02:04:39;;;;;;;;;0.00;0.00;;;;;26.97;49.91;100873.13;5035817;28;46977;-68
2021/09/05 02:07:05;;;;;;;;;0.67;0.67;;;;;26.96;49.47;100864.03;5036487;28;45448;-68
2021/09/05 02:09:30;;;;;;;;;0.67;0.67;;;;;26.95;49.35;100865.03;5036200;28;45424;-68
2021/09/05 02:11:55;;;;;;;;;0.00;0.00;;;;;26.96;49.33;100864.03;5035556;28;45503;-69
2021/09/05 02:14:21;;;;;;;;;0.00;0.00;;;;;26.96;50.07;100863.16;5036589;28;45440;-68
2021/09/05 02:16:47;;;;;;;;;0.00;0.00;;;;;26.94;49.42;100866.88;5036266;28;45412;-68
2021/09/05 02:19:12;;;;;;;;;0.00;0.00;;;;;26.94;49.35;100861.41;5035048;28;45509;-68
2021/09/05 02:21:37;;;;;;;;;0.75;0.75;;;;;26.94;49.53;100861.41;5035358;28;45438;-68
2021/09/05 02:24:03;;;;;;;;;0.00;0.00;;;;;26.96;49.65;100864.03;5036284;28;46523;-68
2021/09/05 02:26:28;;;;;;;;;1.00;1.00;;;;;26.97;49.85;100865.81;5036078;28;45457;-68
2021/09/05 02:28:55;;;;;;;;;0.00;0.00;;;;;26.97;49.90;100870.41;5036497;28;45765;-68
2021/09/05 02:31:20;;;;;;;;;0.00;0.00;;;;;26.97;49.53;100865.81;5036243;28;45732;-68
2021/09/05 02:33:45;;;;;;;;;0.00;0.00;;;;;26.96;49.83;100866.78;5036042;28;45591;-68
2021/09/05 02:36:11;;;;;;;;;1.67;0.33;;;;;26.97;49.54;100864.94;5036144;28;45465;-68
2021/09/05 02:38:42;;;;;;;;;1.33;1.33;;;;;26.96;49.50;100866.78;5036066;28;45535;-68
2021/09/05 02:41:08;;;;;;;;;0.00;0.00;;;;;26.96;50.13;100868.63;5036280;28;45397;-68
2021/09/05 02:43:33;;;;;;;;;0.33;0.33;;;;;26.97;49.44;100870.41;5035749;28;45440;-68
2021/09/05 02:45:59;;;;;;;;;0.00;0.00;;;;;26.94;50.02;100866.88;5035737;28;45914;-68
2021/09/05 02:48:24;;;;;;;;;1.33;0.33;;;;;26.97;49.92;100870.41;5035946;28;45802;-68
2021/09/05 02:50:49;;;;;;;;;0.67;0.67;;;;;26.94;50.07;100871.44;5036426;28;45455;-68
2021/09/05 02:53:15;;;;;;;;;0.00;0.00;;;;;26.96;49.55;100872.22;5035880;28;45461;-68
2021/09/05 02:55:40;;;;;;;;;0.00;0.00;;;;;26.96;49.88;100874.09;5035805;28;45439;-68
2021/09/05 02:58:06;;;;;;;;;0.00;0.00;;;;;26.96;50.00;100874.97;5035794;28;45257;-68
2021/09/05 03:00:31;;;;;;;;;0.00;0.00;;;;;26.94;49.91;100861.41;5035588;28;45795;-68
2021/09/05 03:02:56;;;;;;;;;0.00;0.00;;;;;26.96;49.80;100869.50;5035732;28;45999;-68
2021/09/05 03:05:22;;;;;;;;;0.00;0.00;;;;;26.96;49.41;100869.50;5035372;28;45492;-68
2021/09/05 03:07:47;;;;;;;;;0.00;0.00;;;;;26.94;49.41;100866.88;5035818;28;45811;-68
2021/09/05 03:10:12;;;;;;;;;0.00;0.00;;;;;26.94;49.74;100861.41;5016550;28;44803;-68
2021/09/05 03:12:39;;;;;;;;;0.67;0.67;;;;;26.93;49.74;100856.91;5035398;28;47109;-68
2021/09/05 03:15:05;;;;;;;;;0.00;0.00;;;;;26.91;49.67;100855.22;5035305;28;45673;-68
2021/09/05 03:17:31;;;;;;;;;0.00;0.00;;;;;26.93;49.37;100859.63;5035425;28;45440;-68
2021/09/05 03:19:56;;;;;;;;;0.00;0.00;;;;;26.94;49.87;100857.78;5035673;28;45763;-68
2021/09/05 03:22:21;;;;;;;;;0.00;0.00;;;;;26.94;49.88;100866.88;5033745;28;46169;-68
2021/09/05 03:24:47;;;;;;;;;0.00;0.00;;;;;26.92;49.31;100868.81;5035336;28;45484;-68
2021/09/05 03:27:12;;;;;;;;;1.00;1.00;;;;;26.93;49.96;100869.69;5035569;28;44833;-68
2021/09/05 03:29:38;;;;;;;;;1.67;0.00;;;;;26.93;49.54;100869.69;5035514;28;45509;-68
2021/09/05 03:32:03;;;;;;;;;0.00;0.00;;;;;26.93;50.02;100864.22;5035053;28;46142;-68
2021/09/05 03:34:29;;;;;;;;;0.00;0.00;;;;;26.92;49.59;100868.81;5035173;28;46202;-68
2021/09/05 03:36:54;;;;;;;;;0.00;0.00;;;;;26.91;49.21;100864.28;5033155;28;45547;-68
2021/09/05 03:39:19;;;;;;;;;0.00;0.00;;;;;26.91;50.04;100856.09;5035598;28;45462;-69
2021/09/05 03:41:45;;;;;;;;;0.00;0.00;;;;;26.88;49.54;100858.09;5034686;28;45428;-69
2021/09/05 03:44:10;;;;;;;;;0.00;0.00;;;;;26.91;49.80;100866.16;5035034;28;45780;-69
2021/09/05 03:46:35;;;;;;;;;0.00;0.00;;;;;26.91;49.95;100857.97;5035059;28;45443;-67
2021/09/05 03:49:02;;;;;;;;;0.00;0.00;;;;;26.91;50.03;100867.03;5034034;28;45438;-67
2021/09/05 03:51:27;;;;;;;;;0.00;0.00;;;;;26.91;49.86;100858.84;5035145;28;45424;-68
2021/09/05 03:53:53;;;;;;;;;1.00;1.00;;;;;26.89;49.96;100857.16;5034997;28;45412;-68
2021/09/05 03:56:18;;;;;;;;;0.00;0.00;;;;;26.91;49.61;100860.69;5034240;28;45401;-68
2021/09/05 03:58:44;;;;;;;;;0.67;0.67;;;;;26.91;49.34;100860.69;5035543;28;45504;-68
2021/09/05 04:01:09;;;;;;;;;0.00;0.00;;;;;26.90;50.02;100862.50;5035141;28;45472;-68
2021/09/05 04:03:34;;;;;;;;;0.00;0.00;;;;;26.89;50.04;100857.16;5034673;28;44844;-68
2021/09/05 04:06:02;;;;;;;;;0.00;0.00;;;;;26.89;49.74;100858.03;5034850;28;45435;-68
2021/09/05 04:08:42;;;;;;;;;0.00;0.00;;;;;26.89;49.49;100862.63;5034673;28;45546;-69
2021/09/05 04:11:08;;;;;;;;;0.00;0.00;;;;;26.89;49.82;100866.22;5034043;28;45487;-69
2021/09/05 04:13:34;;;;;;;;;0.67;0.67;;;;;26.90;49.54;100867.97;5034594;28;45432;-69
2021/09/05 04:16:00;;;;;;;;;0.33;0.33;;;;;26.91;50.11;100866.16;5033084;28;45541;-69
2021/09/05 04:18:25;;;;;;;;;0.00;0.00;;;;;26.85;49.58;100856.41;5033501;28;45363;-69
2021/09/05 04:20:52;;;;;;;;;0.00;0.00;;;;;26.90;50.00;100865.25;5034456;28;46157;-69
2021/09/05 04:23:17;;;;;;;;;0.00;0.00;;;;;26.90;49.73;100859.78;5034542;28;45444;-69
2021/09/05 04:25:43;;;;;;;;;0.00;0.00;;;;;26.87;50.00;100854.50;5034502;28;45424;-69
2021/09/05 04:28:08;;;;;;;;;0.00;0.00;;;;;26.89;49.44;100874.41;5034662;28;45448;-69
2021/09/05 04:30:33;;;;;;;;;0.00;0.00;;;;;26.89;49.76;100868.94;5034532;28;45374;-69
2021/09/05 04:32:59;;;;;;;;;0.00;0.00;;;;;26.90;49.54;100876.16;5033983;28;45772;-69
2021/09/05 04:35:24;;;;;;;;;0.00;0.00;;;;;26.87;49.65;100876.34;5034413;28;45869;-69
2021/09/05 04:37:50;;;;;;;;;0.00;0.00;;;;;26.89;49.47;100874.41;5034210;28;45424;-69
2021/09/05 04:40:15;;;;;;;;;0.33;0.33;;;;;26.89;49.67;100879.88;5032657;28;48466;-69
2021/09/05 04:42:41;;;;;;;;;1.00;0.00;;;;;26.88;50.06;100882.66;5033925;28;45436;-69
2021/09/05 04:45:08;;;;;;;;;0.00;0.00;;;;;26.88;49.78;100871.75;5034189;28;45475;-69
2021/09/05 04:47:34;;;;;;;;;0.00;0.00;;;;;26.89;49.91;100879.00;5033016;28;45350;-69
2021/09/05 04:50:00;;;;;;;;;0.00;0.00;;;;;26.89;49.90;100884.44;5033789;28;46079;-69
2021/09/05 04:52:25;;;;;;;;;0.00;0.00;;;;;26.88;49.83;100889.00;5033573;28;45547;-70
2021/09/05 04:54:50;;;;;;;;;0.00;0.00;;;;;26.87;49.93;100892.69;5034085;28;45534;-68
2021/09/05 04:57:16;;;;;;;;;0.67;0.67;;;;;26.87;50.08;100887.25;5032672;28;45412;-68
2021/09/05 04:59:41;;;;;;;;;0.00;0.00;;;;;26.88;49.93;100899.91;5033786;28;45584;-68
2021/09/05 05:02:07;;;;;;;;;0.00;0.00;;;;;26.88;49.38;100905.38;5033877;28;45385;-68
2021/09/05 05:04:32;;;;;;;;;0.33;0.33;;;;;26.87;49.82;100900.88;5032626;28;45675;-68
2021/09/05 05:06:57;;;;;;;;;0.00;0.00;;;;;26.86;49.92;100900.97;5033812;28;45705;-68
2021/09/05 05:09:23;;;;;;;;;0.00;0.00;;;;;26.85;49.94;100905.53;5033044;28;45523;-68
2021/09/05 05:11:48;;;;;;;;;0.67;0.00;;;;;26.85;49.67;100911.00;5033492;28;45398;-68
2021/09/05 05:14:13;;;;;;;;;0.00;0.00;;;;;26.84;50.04;100922.88;5033850;28;45419;-68
2021/09/05 05:16:40;;;;;;;;;0.00;0.00;;;;;26.82;49.79;100913.88;5032464;28;45800;-68
2021/09/05 05:19:06;;;;;;;;;0.00;0.00;;;;;26.82;49.86;100919.34;5033358;28;45538;-68
2021/09/05 05:21:31;;;;;;;;;0.00;0.00;;;;;26.85;49.91;100921.91;5033428;28;45425;-68
2021/09/05 05:23:58;;;;;;;;;0.00;0.00;;;;;26.85;50.01;100919.19;5033527;28;45396;-68
2021/09/05 05:26:26;;;;;;;;;0.00;0.00;;;;;26.83;49.95;100917.50;5033867;28;45415;-68
2021/09/05 05:28:52;;;;;;;;;0.00;0.00;;;;;26.84;49.88;100925.59;5033356;28;45415;-68
2021/09/05 05:31:17;;;;;;;;;0.00;0.00;;;;;26.83;49.49;100918.38;5033322;28;45812;-68
2021/09/05 05:33:44;;;;;;;;;0.00;0.00;;;;;26.79;49.71;100910.44;5033281;28;45458;-68
2021/09/05 05:36:09;;;;;;;;;0.00;0.00;;;;;26.81;49.68;100923.03;5033732;28;45450;-68
2021/09/05 05:38:36;;;;;;;;;0.67;0.67;;;;;26.82;49.64;100922.06;5029856;28;45476;-68
2021/09/05 05:41:02;;;;;;;;;0.00;0.00;;;;;26.83;49.64;100928.44;5033262;28;45481;-68
2021/09/05 05:43:28;;;;;;;;;0.00;0.00;;;;;26.83;49.95;100933.88;5033416;28;45388;-68
2021/09/05 05:45:54;;;;;;;;;0.00;0.00;;;;;26.83;49.96;100937.50;5032009;28;45464;-68
2021/09/05 05:48:20;;;;;;;;;0.00;0.00;;;;;26.77;49.41;100929.63;5033258;28;45734;-68
2021/09/05 05:50:47;;;;;;;;;1.33;1.33;;;;;26.80;50.00;100926.72;5033210;28;45484;-68
2021/09/05 05:53:14;;;;;;;;;0.00;0.00;;;;;26.82;49.78;100929.38;5033315;28;45491;-68
2021/09/05 05:55:39;;;;;;;;;0.00;0.00;;;;;26.83;50.00;100942.06;5033328;28;45497;-68
2021/09/05 05:58:05;;;;;;;;;0.33;0.33;;;;;26.82;50.13;100938.44;5031497;28;46004;-68
2021/09/05 06:00:31;;;;;;;;;0.00;0.00;;;;;26.83;49.58;100934.75;5034798;28;45638;-68
2021/09/05 06:02:56;;;;;;;;;0.00;0.00;;;;;26.80;49.52;100940.34;5036840;28;45750;-68
2021/09/05 06:05:22;;;;;;;;;0.00;0.00;;;;;26.83;49.50;100947.53;5036613;28;45458;-68
2021/09/05 06:07:47;;;;;;;;;0.00;0.00;;;;;26.82;49.96;100952.06;5036160;28;45492;-68
2021/09/05 06:10:13;;;;;;;;;0.33;0.33;;;;;26.84;50.12;100952.00;5035761;28;45795;-68
2021/09/05 06:12:39;;;;;;;;;0.67;0.67;;;;;26.81;50.08;100941.25;5036511;28;45501;-68
2021/09/05 06:15:06;;;;;;;;;0.00;0.00;;;;;26.81;50.30;100941.25;5036640;28;45427;-68
2021/09/05 06:17:31;;;;;;;;;0.67;0.67;;;;;26.83;50.02;100950.25;5034876;28;46888;-68
2021/09/05 06:19:56;;;;;;;;;0.00;0.00;;;;;26.83;49.73;100962.06;5034976;28;45733;-68
2021/09/05 06:22:22;;;;;;;;;0.00;0.00;;;;;26.80;50.08;100955.84;5036216;28;45337;-68
2021/09/05 06:24:47;;;;;;;;;0.00;0.00;;;;;26.83;49.82;100967.50;5034949;28;45474;-68
2021/09/05 06:27:13;;;;;;;;;0.00;0.00;;;;;26.83;49.68;100972.97;5035976;28;46120;-68
2021/09/05 06:29:38;;;;;;;;;0.00;0.00;;;;;26.83;49.59;100978.41;5036258;28;44945;-68
2021/09/05 06:32:04;;;;;;;;;0.50;0.25;;;;;26.84;49.48;100976.56;5036160;28;45475;-68
2021/09/05 06:34:31;;;;;;;;;0.33;0.33;;;;;26.83;49.77;100978.41;5036179;28;45491;-68
2021/09/05 06:36:56;;;;;;;;;0.00;0.00;;;;;26.84;49.48;100982.91;5036310;28;45489;-68
2021/09/05 06:39:21;;;;;;;;;0.75;0.75;;;;;26.83;49.87;100986.59;5035910;28;45623;-68
2021/09/05 06:41:47;;;;;;;;;0.00;0.00;;;;;26.82;49.52;100995.75;5035962;28;45468;-68
2021/09/05 06:44:12;;;;;;;;;0.00;0.00;;;;;26.84;49.58;100991.09;5035985;28;45395;-68
2021/09/05 06:46:39;;;;;;;;;0.67;0.67;;;;;26.85;49.67;100992.88;5034186;28;45433;-68
2021/09/05 06:49:04;;;;;;;;;0.00;0.00;;;;;26.84;49.54;100999.28;5035968;28;45743;-68
2021/09/05 06:51:29;;;;;;;;;0.00;0.00;;;;;26.84;49.92;101001.13;5036467;28;45556;-68
2021/09/05 06:53:55;;;;;;;;;0.00;0.00;;;;;26.82;49.86;101003.94;5036269;28;45724;-68
2021/09/05 06:56:20;;;;;;;;;0.33;0.33;;;;;26.83;49.52;101000.25;5036186;28;45381;-67
2021/09/05 06:58:47;;;;;;;;;0.00;0.00;;;;;26.85;49.41;101008.38;5035841;28;45508;-68
2021/09/05 07:01:12;;;;;;;;;0.25;0.25;;;;;26.83;49.42;101013.91;5035937;28;45471;-67
2021/09/05 07:03:38;;;;;;;;;1.00;1.00;;;;;26.83;49.93;101016.63;5036586;28;45498;-67
2021/09/05 07:06:04;;;;;;;;;0.00;0.00;;;;;26.83;49.91;101013.03;5036031;28;45526;-68
2021/09/05 07:08:29;;;;;;;;;0.00;0.00;;;;;26.84;49.89;101025.69;5034903;28;45846;-69
2021/09/05 07:10:55;;;;;;;;;0.00;0.00;;;;;26.82;50.00;101022.16;5033017;28;45506;-69
2021/09/05 07:13:20;;;;;;;;;1.00;1.00;;;;;26.80;49.44;101011.31;5034100;28;45724;-69
2021/09/05 07:15:45;;;;;;;;;0.00;0.00;;;;;26.81;49.47;101017.66;5032365;28;47213;-69
2021/09/05 07:18:11;;;;;;;;;0.00;0.00;;;;;26.83;49.52;101015.75;5035656;28;45464;-69
2021/09/05 07:20:37;;;;;;;;;0.00;0.00;;;;;26.82;49.60;101014.84;5034265;28;45493;-69
2021/09/05 07:23:03;;;;;;;;;0.00;0.00;;;;;26.80;50.01;101008.56;5035994;28;45381;-69
2021/09/05 07:25:30;;;;;;;;;0.00;0.00;;;;;26.84;49.91;101014.78;5035501;28;46701;-69
2021/09/05 07:27:55;;;;;;;;;0.67;0.67;;;;;26.84;49.37;101023.84;5035257;28;45390;-69
2021/09/05 07:30:21;;;;;;;;;0.00;0.00;;;;;26.84;49.36;101018.38;5035169;28;45712;-69
2021/09/05 07:32:48;;;;;;;;;0.00;0.00;;;;;26.85;49.91;101020.16;5035478;28;45756;-69
2021/09/05 07:35:13;;;;;;;;;0.67;0.67;;;;;26.86;49.62;101021.91;5033255;28;45565;-69
2021/09/05 07:37:38;;;;;;;;;1.00;1.00;;;;;26.87;49.71;101029.16;5034713;28;45518;-69
2021/09/05 07:40:14;;;;;;;;;0.00;0.00;;;;;26.89;49.76;101032.69;5033858;28;45457;-69
2021/09/05 07:42:46;;;;;;;;;0.00;0.00;;;;;26.90;49.28;101029.00;5032207;28;45429;-69
2021/09/05 07:45:12;;;;;;;;;1.00;0.00;;;;;26.92;49.80;101035.28;5034814;28;45565;-69
2021/09/05 07:47:38;;;;;;;;;0.00;0.00;;;;;26.95;49.45;101042.44;5033238;28;45398;-69
2021/09/05 07:50:05;;;;;;;;;0.67;0.67;;;;;26.94;49.88;101044.28;5035330;28;45345;-69
2021/09/05 07:52:30;;;;;;;;;0.00;0.00;;;;;26.97;49.57;101051.44;5035154;28;45817;-69
2021/09/05 07:54:57;;;;;;;;;0.00;0.00;;;;;26.98;49.85;101052.31;5034976;28;45449;-69
2021/09/05 07:57:22;;;;;;;;;0.00;0.00;;;;;27.00;49.70;101048.53;5034659;28;45494;-69
2021/09/05 07:59:48;;;;;;;;;1.00;1.00;;;;;27.01;49.09;101055.78;5035047;28;45530;-69
2021/09/05 08:02:13;;;;;;;;;0.00;0.00;;;;;27.00;49.17;101054.00;5032522;28;45447;-69
2021/09/05 08:04:38;;;;;;;;;0.00;0.00;;;;;27.04;49.17;101057.47;5032401;28;45658;-68
2021/09/05 08:07:04;;;;;;;;;0.00;0.00;;;;;27.06;49.17;101063.72;5032669;28;45390;-68
2021/09/05 08:09:29;;;;;;;;;0.67;0.67;;;;;27.06;49.00;101064.59;5032062;28;45775;-68
2021/09/05 08:12:01;;;;;;;;;0.67;0.67;;;;;27.08;49.43;101070.00;5031799;28;45433;-67
2021/09/05 08:14:27;;;;;;;;;0.00;0.00;;;;;27.06;48.91;101066.47;5030542;28;46993;-68
2021/09/05 08:16:52;;;;;;;;;0.00;0.00;;;;;27.10;49.29;101062.63;5031710;28;45362;-68
2021/09/05 08:19:17;;;;;;;;;0.00;0.00;;;;;27.11;49.59;101065.28;5031917;28;45313;-68
2021/09/05 08:21:43;;;;;;;;;0.00;0.00;;;;;27.14;49.40;101072.41;5032346;28;45408;-68
2021/09/05 08:24:09;;;;;;;;;0.67;0.67;;;;;27.17;48.77;101077.75;5031113;28;46124;-69
2021/09/05 08:26:35;;;;;;;;;1.00;1.00;;;;;27.18;48.78;101078.63;5031960;28;45828;-68
2021/09/05 08:29:00;;;;;;;;;0.00;0.00;;;;;27.11;48.72;101058.94;5030360;28;45342;-68
2021/09/05 08:31:26;;;;;;;;;0.00;0.00;;;;;27.18;49.54;101070.44;5030183;28;45437;-68
2021/09/05 08:33:51;;;;;;;;;0.00;0.00;;;;;27.22;49.12;101080.22;5031489;28;46429;-68
2021/09/05 08:36:18;;;;;;;;;0.67;0.67;;;;;27.21;48.98;101070.25;5031412;28;45402;-68
2021/09/05 08:38:43;;;;;;;;;1.33;1.33;;;;;27.25;49.33;101078.28;5031327;28;45492;-68
2021/09/05 08:41:08;;;;;;;;;0.00;0.00;;;;;27.27;48.95;101079.09;5031574;28;45460;-68
2021/09/05 08:43:37;;;;;;;;;1.00;1.00;;;;;27.29;49.15;101071.69;5030843;28;45755;-67
2021/09/05 08:46:04;;;;;;;;;1.00;1.00;;;;;27.30;48.75;101070.72;5031099;28;45469;-68
2021/09/05 08:48:29;;;;;;;;;0.67;0.67;;;;;27.32;49.21;101078.84;5030924;28;45457;-68
2021/09/05 08:50:55;;;;;;;;;2.33;2.33;;;;;27.29;48.65;101074.44;5031442;28;45451;-68
2021/09/05 08:53:21;;;;;;;;;0.67;0.67;;;;;27.33;48.36;101073.31;5031046;28;45532;-68
2021/09/05 08:55:48;;;;;;;;;0.67;0.67;;;;;27.37;48.96;101078.59;5031672;28;45420;-68
2021/09/05 08:58:16;;;;;;;;;1.67;0.67;;;;;27.37;48.61;101079.50;5031661;28;45523;-68
2021/09/05 09:00:42;;;;;;;;;0.67;0.67;;;;;27.37;48.89;101079.50;5032407;28;45467;-67
2021/09/05 09:03:09;;;;;;;;;0.67;0.67;;;;;27.40;48.87;101081.19;5029973;28;46373;-67
2021/09/05 09:05:36;;;;;;;;;1.00;1.00;;;;;27.42;48.31;101087.44;5030543;28;45421;-67
2021/09/05 09:08:13;;;;;;;;;0.00;0.00;;;;;27.43;48.29;101086.47;5031379;28;45338;-68
2021/09/05 09:10:47;;;;;;;;;0.00;0.00;;;;;27.45;48.29;101087.28;5034262;28;45424;-67
2021/09/05 09:13:22;;;;;;;;;0.00;0.00;;;;;27.45;48.28;101087.28;5034204;28;45394;-67
2021/09/05 09:15:48;;;;;;;;;0.00;0.00;;;;;27.45;48.43;101095.47;5034025;28;45465;-67
2021/09/05 09:18:13;;;;;;;;;0.00;0.00;;;;;27.47;49.05;101088.09;5033931;28;45462;-67
2021/09/05 09:20:42;;;;;;;;;0.00;0.00;;;;;27.49;48.66;101094.34;5032673;28;45520;-67
2021/09/05 09:23:11;;;;;;;;;1.00;1.00;;;;;27.51;48.62;101086.97;5033302;28;46429;-68
2021/09/05 09:25:37;;;;;;;;;0.00;0.00;;;;;27.53;48.78;101093.22;5033924;28;45797;-67
2021/09/05 09:28:21;;;;;;;;;1.00;1.00;;;;;27.54;48.58;101095.91;5033924;28;45445;-67
2021/09/05 09:30:47;;;;;;;;;0.67;0.67;;;;;27.56;48.31;101100.41;5032546;28;45494;-68
2021/09/05 09:33:19;;;;;;;;;0.00;0.00;;;;;27.56;48.69;101094.94;5031896;28;45426;-68
2021/09/05 09:35:50;;;;;;;;;0.00;0.00;;;;;27.59;48.16;101092.03;5035775;28;45699;-68
2021/09/05 09:38:17;;;;;;;;;1.00;1.00;;;;;27.56;48.32;101087.63;5037042;28;45535;-68
2021/09/05 09:40:43;;;;;;;;;0.33;0.33;;;;;27.61;48.24;101087.38;5034113;28;45386;-69
2021/09/05 09:43:20;;;;;;;;;1.00;1.00;;;;;27.59;48.34;101084.75;5036816;28;47054;-68
2021/09/05 09:45:46;;;;;;;;;1.00;1.00;;;;;27.62;48.37;101081.84;5037062;28;45412;-68
2021/09/05 09:48:21;;;;;;;;;1.67;1.67;;;;;27.64;48.28;101090.84;5036953;28;45444;-68
2021/09/05 09:50:48;;;;;;;;;0.00;0.00;;;;;27.65;48.54;101089.91;5037436;28;45493;-69
2021/09/05 09:53:14;;;;;;;;;0.33;0.33;;;;;27.60;48.04;101074.69;5036861;28;45492;-67
2021/09/05 09:55:41;;;;;;;;;0.67;0.67;;;;;27.69;47.91;101096.06;5035653;28;46138;-68
2021/09/05 09:58:06;;;;;;;;;1.00;1.00;;;;;27.66;48.07;101086.19;5037033;28;45404;-68
2021/09/05 10:00:32;;;;;;;;;0.00;0.00;;;;;27.68;47.90;101091.59;5035874;28;45420;-68
2021/09/05 10:03:00;;;;;;;;;0.67;0.67;;;;;27.69;48.38;101091.50;5036872;28;45466;-68
2021/09/05 10:05:27;;;;;;;;;0.67;0.67;;;;;27.72;48.00;101098.66;5037098;28;45537;-68
2021/09/05 10:07:55;;;;;;;;;0.00;0.00;;;;;27.73;48.34;101093.13;5037128;28;45480;-68
2021/09/05 10:10:23;;;;;;;;;2.00;2.00;;;;;27.74;48.16;101088.53;5036575;28;45447;-68
2021/09/05 10:12:50;;;;;;;;;0.00;0.00;;;;;27.74;47.76;101085.78;5036765;28;46042;-68
2021/09/05 10:15:18;;;;;;;;;0.67;0.67;;;;;27.76;47.70;101088.44;5035085;28;45396;-69
2021/09/05 10:17:45;;;;;;;;;2.00;2.00;;;;;27.77;48.14;101085.63;5036890;28;45443;-69
2021/09/05 10:20:11;;;;;;;;;0.67;0.67;;;;;27.78;48.28;101090.13;5036550;28;45783;-69
2021/09/05 10:22:37;;;;;;;;;1.67;1.67;;;;;27.73;47.58;101082.19;5036601;28;45452;-69
2021/09/05 10:25:05;;;;;;;;;0.67;0.00;;;;;27.80;47.60;101084.59;5036222;28;45508;-69
2021/09/05 10:27:33;;;;;;;;;0.00;0.00;;;;;27.82;48.06;101093.59;5036585;28;45400;-69
2021/09/05 10:30:10;;;;;;;;;0.00;0.00;;;;;27.82;48.29;101094.47;5036631;28;45476;-69
2021/09/05 10:32:57;;;;;;;;;0.00;0.00;;;;;27.84;48.11;101091.66;5036162;28;46443;-69
2021/09/05 10:35:37;;;;;;;;;0.00;0.00;;;;;27.84;47.73;101092.53;5036307;28;45424;-69
2021/09/05 10:38:14;;;;;;;;;0.00;0.00;;;;;27.86;48.09;101090.59;5036031;28;45472;-69
2021/09/05 10:40:57;;;;;;;;;0.00;0.00;;;;;27.87;47.83;101097.00;5036502;28;45760;-67
2021/09/05 10:43:43;;;;;;;;;0.33;0.33;;;;;27.88;47.53;101085.09;5036083;28;45459;-68
2021/09/05 10:46:09;;;;;;;;;0.00;0.00;;;;;27.90;47.76;101084.06;5035659;28;44930;-68
2021/09/05 10:48:44;;;;;;;;;0.00;0.00;;;;;27.90;47.86;101081.31;5036163;28;45485;-68
2021/09/05 10:51:20;;;;;;;;;0.00;0.00;;;;;27.91;48.00;101079.47;5036504;28;45432;-68
2021/09/05 10:54:01;;;;;;;;;0.00;0.00;;;;;27.92;47.56;101073.03;5035801;28;45499;-68
2021/09/05 10:56:32;;;;;;;;;0.00;0.00;;;;;27.94;47.62;101073.84;5036231;28;45543;-68
2021/09/05 10:59:00;;;;;;;;;0.00;0.00;;;;;27.95;47.68;101070.13;5035884;28;45493;-68
2021/09/05 11:01:55;;;;;;;;;0.00;0.00;;;;;27.96;47.69;101076.50;5036094;28;45662;-68
2021/09/05 11:04:42;;;;;;;;;0.00;0.00;;;;;27.96;48.00;101074.66;5035969;28;45415;-68
2021/09/05 11:07:29;;;;;;;;;0.00;0.00;;;;;27.96;47.74;101077.38;5035928;28;45486;-68
2021/09/05 11:09:56;;;;;;;;;0.00;0.00;;;;;27.97;47.89;101073.66;5035764;28;45597;-68
2021/09/05 11:12:37;;;;;;;;;0.00;0.00;;;;;27.98;47.87;101072.72;5035792;28;45422;-68
2021/09/05 11:15:09;;;;;;;;;0.00;0.00;;;;;28.00;47.87;101075.38;5035912;28;45648;-68
2021/09/05 11:17:35;;;;;;;;;0.00;0.00;;;;;27.99;47.49;101079.94;5035636;28;45372;-68
2021/09/05 11:20:01;;;;;;;;;0.00;0.00;;;;;28.00;47.48;101065.31;5035782;28;45435;-68
2021/09/05 11:22:32;;;;;;;;;0.00;0.00;;;;;28.01;47.70;101071.66;5036114;28;45414;-68